Time;durP1;ratioP1;P1;durP2;ratioP2;P2;SDS_P1;SDS_P2;PMS_P1;PMS_P2;Temp;Humidity;BMP_temperature;BMP_pressure;BME280_temperature;BME280_humidity;BME280_pressure;Samples;Min_cycle;Max_cycle;Signal;HPM_P1;HPM_P2
2023/05/28 00:01:06;;;;;;;;;;;8.00;99.90;;;;;;8186560;29;19911;-86
2023/05/28 00:05:12;;;;;;;;;;;8.10;99.90;;;;;;8174053;29;19921;-86
2023/05/28 00:09:29;;;;;;;;;;;8.00;99.90;;;;;;8192623;28;19911;-88
2023/05/28 00:13:36;;;;;;;;;;;9.00;99.90;;;;;;8216599;28;19910;-88
2023/05/28 00:17:39;;;;;;;;;;;7.70;99.90;;;;;;8185964;29;19938;-86
2023/05/28 00:21:45;;;;;;;;;;;7.80;99.90;;;;;;8184079;29;19993;-86
2023/05/28 00:25:46;;;;;;;;;;;7.60;99.90;;;;;;8182045;29;19911;-86
2023/05/28 00:29:52;;;;;;;;;;;7.60;99.90;;;;;;8194745;28;20080;-86
2023/05/28 00:34:02;;;;;;;;;;;7.70;99.90;;;;;;8185672;29;19910;-86
2023/05/28 00:38:23;;;;;;;;;;;7.80;99.90;;;;;;8179847;28;19910;-86
2023/05/28 00:42:26;;;;;;;;;;;7.50;99.90;;;;;;8174879;29;19911;-86
2023/05/28 00:46:42;;;;;;;;;;;7.40;99.90;;;;;;8181785;29;20296;-85
2023/05/28 00:50:43;;;;;;;;;;;7.30;99.90;;;;;;8173937;29;19926;-86
2023/05/28 00:54:55;;;;;;;;;;;7.40;99.90;;;;;;8171344;29;19911;-87
2023/05/28 00:59:07;;;;;;;;;;;7.20;99.90;;;;;;8172531;29;19919;-86
2023/05/28 01:03:14;;;;;;;;;;;7.60;99.90;;;;;;8182050;28;19956;-86
2023/05/28 01:07:23;;;;;;;;;;;7.10;99.90;;;;;;8184759;29;19942;-86
2023/05/28 01:11:29;;;;;;;;;;;8.00;99.90;;;;;;8186730;29;20001;-86
2023/05/28 01:15:33;;;;;;;;;;;7.10;99.90;;;;;;8181088;28;19942;-86
2023/05/28 01:19:50;;;;;;;;;;;7.50;99.90;;;;;;8188762;28;19915;-85
2023/05/28 01:24:03;;;;;;;;;;;6.70;99.90;;;;;;8184651;29;20005;-86
2023/05/28 01:28:10;;;;;;;;;;;6.80;99.90;;;;;;8189004;28;19965;-86
2023/05/28 01:32:11;;;;;;;;;;;6.60;99.90;;;;;;8199167;29;19922;-86
2023/05/28 01:36:30;;;;;;;;;;;6.70;99.90;;;;;;8193187;29;19910;-86
2023/05/28 01:40:42;;;;;;;;;;;7.10;99.90;;;;;;8182713;28;19981;-86
2023/05/28 01:44:48;;;;;;;;;;;6.70;99.90;;;;;;8179537;28;20216;-85
2023/05/28 01:48:52;;;;;;;;;;;6.50;99.90;;;;;;8184517;28;19915;-86
2023/05/28 01:53:06;;;;;;;;;;;6.60;99.90;;;;;;8178221;28;19983;-86
2023/05/28 01:57:13;;;;;;;;;;;6.50;99.90;;;;;;8197360;28;19911;-86
2023/05/28 02:01:15;;;;;;;;;;;6.40;99.90;;;;;;8176302;29;19910;-86
2023/05/28 02:05:19;;;;;;;;;;;6.60;99.90;;;;;;8188603;28;19910;-86
2023/05/28 02:09:23;;;;;;;;;;;6.40;99.90;;;;;;8184096;29;19914;-86
2023/05/28 02:13:35;;;;;;;;;;;6.20;99.90;;;;;;8181652;28;19918;-85
2023/05/28 02:17:39;;;;;;;;;;;6.30;99.90;;;;;;8181212;29;19917;-88
2023/05/28 02:21:43;;;;;;;;;;;6.10;99.90;;;;;;8182206;29;19911;-85
2023/05/28 02:26:18;;;;;;;;;;;6.00;99.90;;;;;;8179382;29;20001;-86
2023/05/28 02:30:18;;;;;;;;;;;6.20;99.90;;;;;;8177319;29;20017;-86
2023/05/28 02:34:19;;;;;;;;;;;6.10;99.90;;;;;;8179047;28;19915;-86
2023/05/28 02:38:23;;;;;;;;;;;6.40;99.90;;;;;;8191447;29;19958;-85
2023/05/28 02:42:36;;;;;;;;;;;6.10;99.90;;;;;;8190661;29;19910;-85
2023/05/28 02:46:46;;;;;;;;;;;6.60;99.90;;;;;;8176300;29;19911;-86
2023/05/28 02:50:52;;;;;;;;;;;6.00;99.90;;;;;;8187127;28;19964;-86
2023/05/28 02:55:03;;;;;;;;;;;6.20;99.90;;;;;;8190041;29;19910;-86
2023/05/28 02:59:09;;;;;;;;;;;6.00;99.90;;;;;;8185968;28;19915;-85
2023/05/28 03:03:12;;;;;;;;;;;5.90;99.90;;;;;;8181576;28;19918;-86
2023/05/28 03:07:18;;;;;;;;;;;5.90;99.90;;;;;;8194654;29;19925;-86
2023/05/28 03:11:21;;;;;;;;;;;5.80;99.90;;;;;;8174973;28;19914;-85
2023/05/28 03:20:25;;;;;;;;;;;5.80;99.90;;;;;;8125502;29;19915;-86
2023/05/28 03:24:45;;;;;;;;;;;5.80;99.90;;;;;;8182803;28;19950;-86
2023/05/28 03:29:03;;;;;;;;;;;5.80;99.90;;;;;;8182768;29;19946;-86
2023/05/28 03:33:09;;;;;;;;;;;4.90;99.90;;;;;;8175842;29;19911;-86
2023/05/28 03:37:26;;;;;;;;;;;5.90;99.90;;;;;;8180975;28;19957;-86
2023/05/28 03:41:40;;;;;;;;;;;5.70;99.90;;;;;;8176307;28;19911;-85
2023/05/28 03:45:47;;;;;;;;;;;5.60;99.90;;;;;;8174460;29;19911;-86
2023/05/28 03:49:51;;;;;;;;;;;6.10;99.90;;;;;;8183828;28;20412;-86
2023/05/28 03:54:19;;;;;;;;;;;5.80;99.90;;;;;;8182688;28;19919;-86
2023/05/28 03:58:40;;;;;;;;;;;5.90;99.90;;;;;;8182418;28;19989;-86
2023/05/28 04:02:49;;;;;;;;;;;6.30;99.90;;;;;;8130559;29;19918;-87
2023/05/28 04:06:56;;;;;;;;;;;6.80;99.90;;;;;;8188517;29;20265;-86
2023/05/28 04:11:06;;;;;;;;;;;7.30;99.90;;;;;;8191765;29;20016;-87
2023/05/28 04:15:13;;;;;;;;;;;7.80;99.90;;;;;;8186782;29;19911;-86
2023/05/28 04:19:26;;;;;;;;;;;8.20;99.90;;;;;;8177930;29;19911;-87
2023/05/28 04:23:31;;;;;;;;;;;8.60;99.90;;;;;;8183765;28;20487;-86
2023/05/28 04:32:24;;;;;;;;;;;8.90;99.90;;;;;;8249094;28;19912;-88
2023/05/28 04:36:32;;;;;;;;;;;9.40;99.90;;;;;;8246389;28;19915;-88
2023/05/28 04:45:16;;;;;;;;;;;10.20;99.90;;;;;;8200387;29;19910;-86
2023/05/28 04:49:41;;;;;;;;;;;11.10;99.90;;;;;;8195948;28;19915;-87
2023/05/28 04:53:48;;;;;;;;;;;11.80;99.90;;;;;;8203151;29;19973;-87
2023/05/28 04:57:55;;;;;;;;;;;12.20;99.90;;;;;;8201522;28;19911;-87
2023/05/28 05:02:04;;;;;;;;;;;13.00;99.90;;;;;;8206639;29;20002;-87
2023/05/28 05:06:11;;;;;;;;;;;13.40;99.90;;;;;;8182561;29;19946;-87
2023/05/28 05:11:44;;;;;;;;;;;14.10;99.90;;;;;;8173624;28;19918;-88
2023/05/28 05:15:14;;;;;;;;;;;14.40;99.90;;;;;;8164366;29;19932;-88
2023/05/28 05:19:28;;;;;;;;;;;;;;;;;;;;;
2023/05/28 05:23:39;;;;;;;;;;;15.30;99.90;;;;;;8185982;29;20392;-87
2023/05/28 05:28:08;;;;;;;;;;;15.50;99.90;;;;;;8180078;28;19914;-86
2023/05/28 05:32:11;;;;;;;;;;;16.80;99.90;;;;;;8205321;28;20402;-87
2023/05/28 05:36:15;;;;;;;;;;;16.20;99.90;;;;;;8182530;28;19965;-87
2023/05/28 05:40:21;;;;;;;;;;;16.70;99.90;;;;;;8184578;29;19911;-87
2023/05/28 05:44:22;;;;;;;;;;;17.30;99.90;;;;;;8181548;29;20005;-87
2023/05/28 05:48:29;;;;;;;;;;;17.40;99.90;;;;;;8173990;29;19939;-87
2023/05/28 05:57:08;;;;;;;;;;;19.10;99.90;;;;;;8176151;29;19915;-87
2023/05/28 06:01:18;;;;;;;;;;;18.90;99.90;;;;;;8183087;29;20005;-86
2023/05/28 06:05:34;;;;;;;;;;;18.50;99.90;;;;;;8192338;28;20402;-87
2023/05/28 06:09:43;;;;;;;;;;;19.10;99.90;;;;;;8179648;29;19915;-86
2023/05/28 06:13:46;;;;;;;;;;;19.50;99.90;;;;;;8180190;29;20357;-86
2023/05/28 06:17:58;;;;;;;;;;;19.70;99.90;;;;;;8194362;28;20572;-84
2023/05/28 06:21:59;;;;;;;;;;;20.00;99.90;;;;;;8175653;29;19926;-86
2023/05/28 06:25:59;;;;;;;;;;;20.40;99.90;;;;;;8176263;29;19946;-86
2023/05/28 06:30:13;;;;;;;;;;;20.30;99.90;;;;;;8184135;28;20385;-87
2023/05/28 06:34:14;;;;;;;;;;;20.00;99.90;;;;;;8188315;29;19918;-87
2023/05/28 06:38:21;;;;;;;;;;;20.70;99.90;;;;;;8182056;29;19911;-87
2023/05/28 06:43:22;;;;;;;;;;;21.60;99.90;;;;;;8177445;29;19918;-87
2023/05/28 06:47:06;;;;;;;;;;;21.90;99.90;;;;;;8197681;28;19933;-86
2023/05/28 06:51:12;;;;;;;;;;;21.50;99.90;;;;;;8180528;29;19982;-86
2023/05/28 06:55:16;;;;;;;;;;;21.50;99.90;;;;;;8190285;28;20312;-86
2023/05/28 06:59:20;;;;;;;;;;;21.20;99.90;;;;;;8180189;28;19938;-87
2023/05/28 07:03:21;;;;;;;;;;;21.80;99.90;;;;;;8183583;29;19915;-87
2023/05/28 07:07:21;;;;;;;;;;;22.60;98.40;;;;;;8180863;29;20045;-87
2023/05/28 07:11:26;;;;;;;;;;;22.80;98.50;;;;;;8185958;28;19974;-88
2023/05/28 07:15:30;;;;;;;;;;;23.30;98.70;;;;;;8183953;29;19915;-87
2023/05/28 07:19:31;;;;;;;;;;;23.90;98.20;;;;;;8196446;28;20047;-87
2023/05/28 07:23:35;;;;;;;;;;;24.50;95.50;;;;;;8182620;29;19922;-88
2023/05/28 07:27:55;;;;;;;;;;;24.80;94.10;;;;;;8188589;29;20423;-87
2023/05/28 07:32:24;;;;;;;;;;;24.20;94.80;;;;;;8177009;29;19911;-88
2023/05/28 07:36:52;;;;;;;;;;;24.30;94.10;;;;;;8160005;29;21112;-88
2023/05/28 07:40:59;;;;;;;;;;;24.60;93.10;;;;;;8180858;28;19914;-87
2023/05/28 07:44:59;;;;;;;;;;;24.30;96.10;;;;;;8178589;29;19918;-89
2023/05/28 07:49:06;;;;;;;;;;;24.70;89.60;;;;;;8178732;29;19922;-87
2023/05/28 07:53:09;;;;;;;;;;;24.80;90.90;;;;;;8183480;28;20006;-88
2023/05/28 07:57:24;;;;;;;;;;;25.10;87.80;;;;;;8183234;29;20385;-87
2023/05/28 08:01:24;;;;;;;;;;;24.90;89.90;;;;;;8174131;29;20013;-86
2023/05/28 08:05:48;;;;;;;;;;;24.70;88.90;;;;;;8175476;29;19946;-88
2023/05/28 08:09:52;;;;;;;;;;;24.10;87.40;;;;;;8187420;29;19969;-87
2023/05/28 08:13:55;;;;;;;;;;;23.60;90.80;;;;;;8191641;29;19921;-86
2023/05/28 08:18:14;;;;;;;;;;;22.30;92.40;;;;;;8176299;29;20009;-86
2023/05/28 08:22:18;;;;;;;;;;;22.90;92.00;;;;;;8186775;29;19915;-86
2023/05/28 08:26:32;;;;;;;;;;;22.50;92.30;;;;;;8182865;29;20006;-86
2023/05/28 08:30:36;;;;;;;;;;;23.00;92.10;;;;;;8172117;29;19938;-86
2023/05/28 08:34:39;;;;;;;;;;;23.60;88.60;;;;;;8180216;29;19974;-86
2023/05/28 08:38:46;;;;;;;;;;;22.60;89.10;;;;;;8188768;29;19918;-86
2023/05/28 08:42:47;;;;;;;;;;;23.40;87.90;;;;;;8186137;28;19969;-86
2023/05/28 08:47:06;;;;;;;;;;;23.90;85.90;;;;;;8185552;28;19910;-87
2023/05/28 08:51:15;;;;;;;;;;;24.40;81.60;;;;;;8180181;29;19911;-85
2023/05/28 08:55:16;;;;;;;;;;;23.50;82.00;;;;;;8191340;28;19911;-88
2023/05/28 08:59:20;;;;;;;;;;;22.50;81.80;;;;;;8215508;28;19929;-88
2023/05/28 09:03:21;;;;;;;;;;;22.60;85.20;;;;;;8179208;29;19911;-88
2023/05/28 09:07:27;;;;;;;;;;;23.20;84.40;;;;;;8179314;29;20619;-86
2023/05/28 09:11:34;;;;;;;;;;;23.80;87.00;;;;;;8184630;29;19915;-87
2023/05/28 09:15:37;;;;;;;;;;;23.90;78.10;;;;;;8172011;28;19915;-87
2023/05/28 09:20:00;;;;;;;;;;;24.00;82.80;;;;;;8189290;29;19915;-87
2023/05/28 09:24:01;;;;;;;;;;;24.60;79.60;;;;;;8189649;29;19957;-87
2023/05/28 09:28:04;;;;;;;;;;;24.40;74.90;;;;;;8175849;28;19919;-87
2023/05/28 09:32:05;;;;;;;;;;;24.40;77.90;;;;;;8172637;29;19961;-86
2023/05/28 09:36:22;;;;;;;;;;;24.20;77.00;;;;;;8177104;29;19911;-86
2023/05/28 09:40:26;;;;;;;;;;;24.10;76.50;;;;;;8175608;29;19924;-87
2023/05/28 09:44:35;;;;;;;;;;;24.20;73.40;;;;;;8183189;28;20388;-86
2023/05/28 09:48:38;;;;;;;;;;;24.50;75.10;;;;;;8199368;29;19910;-86
2023/05/28 09:52:45;;;;;;;;;;;24.90;77.10;;;;;;8200601;28;19921;-86
2023/05/28 09:56:52;;;;;;;;;;;24.20;77.10;;;;;;8183537;29;20028;-86
2023/05/28 10:01:25;;;;;;;;;;;24.30;75.70;;;;;;8176170;29;19929;-87
2023/05/28 10:05:30;;;;;;;;;;;24.70;70.00;;;;;;8166058;28;20013;-86
2023/05/28 10:09:44;;;;;;;;;;;;;;;;;;;;;
2023/05/28 10:13:51;;;;;;;;;;;23.90;76.80;;;;;;8186103;28;19914;-86
2023/05/28 10:17:51;;;;;;;;;;;23.60;81.20;;;;;;8183076;29;19911;-86
2023/05/28 10:21:55;;;;;;;;;;;23.60;74.60;;;;;;8183466;29;20022;-85
2023/05/28 10:25:59;;;;;;;;;;;23.80;78.90;;;;;;8181272;29;19922;-86
2023/05/28 10:30:04;;;;;;;;;;;23.80;75.40;;;;;;8189112;28;19910;-86
2023/05/28 10:34:15;;;;;;;;;;;23.70;74.80;;;;;;8181197;29;19911;-87
2023/05/28 10:38:19;;;;;;;;;;;23.90;75.70;;;;;;8182958;28;19990;-86
2023/05/28 10:42:21;;;;;;;;;;;23.60;73.80;;;;;;8179787;28;19942;-87
2023/05/28 10:46:45;;;;;;;;;;;;;;;;;;;;;
2023/05/28 10:51:04;;;;;;;;;;;24.40;71.60;;;;;;8193568;28;19914;-86
2023/05/28 10:55:19;;;;;;;;;;;24.80;70.60;;;;;;8184363;29;19914;-87
2023/05/28 10:59:35;;;;;;;;;;;26.90;71.40;;;;;;8186006;28;20497;-86
2023/05/28 11:03:46;;;;;;;;;;;25.80;72.20;;;;;;8185669;29;19930;-86
2023/05/28 11:07:50;;;;;;;;;;;25.80;68.20;;;;;;8175192;29;19929;-87
2023/05/28 11:11:56;;;;;;;;;;;26.20;68.40;;;;;;8188784;28;20287;-87
2023/05/28 11:16:07;;;;;;;;;;;26.20;64.70;;;;;;8179756;29;19914;-87
2023/05/28 11:20:28;;;;;;;;;;;27.40;66.50;;;;;;8173137;29;19961;-86
2023/05/28 11:24:29;;;;;;;;;;;26.70;61.40;;;;;;8191249;29;20010;-86
2023/05/28 11:28:30;;;;;;;;;;;25.50;66.30;;;;;;8181123;29;19923;-86
2023/05/28 11:32:32;;;;;;;;;;;26.10;66.30;;;;;;8191055;29;20014;-86
2023/05/28 11:36:43;;;;;;;;;;;27.10;64.80;;;;;;8184725;29;19915;-86
2023/05/28 11:40:47;;;;;;;;;;;27.90;65.90;;;;;;8175278;29;19921;-87
2023/05/28 11:45:01;;;;;;;;;;;28.10;61.90;;;;;;8189534;28;19911;-87
2023/05/28 11:49:04;;;;;;;;;;;29.20;59.20;;;;;;8174253;29;19917;-87
2023/05/28 11:53:11;;;;;;;;;;;27.40;58.80;;;;;;8184078;29;19914;-87
2023/05/28 11:57:21;;;;;;;;;;;27.30;61.50;;;;;;8180735;28;20272;-87
2023/05/28 12:01:22;;;;;;;;;;;27.00;64.40;;;;;;8174219;29;19929;-86
2023/05/28 12:05:25;;;;;;;;;;;26.30;61.90;;;;;;8177049;29;19919;-87
2023/05/28 12:09:26;;;;;;;;;;;26.40;66.10;;;;;;8183299;28;19919;-86
2023/05/28 12:13:35;;;;;;;;;;;26.60;63.40;;;;;;8179336;28;19911;-86
2023/05/28 12:17:52;;;;;;;;;;;26.90;59.70;;;;;;8178077;29;20280;-85
2023/05/28 12:21:52;;;;;;;;;;;27.30;60.80;;;;;;8170125;29;20409;-85
2023/05/28 12:26:02;;;;;;;;;;;28.40;56.00;;;;;;8173717;29;19962;-85
2023/05/28 12:30:06;;;;;;;;;;;27.50;56.50;;;;;;8174740;29;20016;-85
2023/05/28 12:34:10;;;;;;;;;;;27.50;58.10;;;;;;8183396;28;19942;-85
2023/05/28 12:38:18;;;;;;;;;;;27.70;57.30;;;;;;8180018;29;19922;-85
2023/05/28 12:42:19;;;;;;;;;;;27.90;54.20;;;;;;8195614;29;19915;-84
2023/05/28 12:46:22;;;;;;;;;;;29.10;55.20;;;;;;8178280;28;19922;-84
2023/05/28 12:55:11;;;;;;;;;;;28.70;53.20;;;;;;8169980;29;19949;-86
2023/05/28 12:59:25;;;;;;;;;;;30.60;56.10;;;;;;8175826;29;19930;-84
2023/05/28 13:03:25;;;;;;;;;;;31.00;50.40;;;;;;8171516;29;19943;-84
2023/05/28 13:07:32;;;;;;;;;;;29.50;51.30;;;;;;8174272;29;19919;-85
2023/05/28 13:11:33;;;;;;;;;;;29.70;51.20;;;;;;8173454;28;19918;-84
2023/05/28 13:15:37;;;;;;;;;;;29.00;51.60;;;;;;8202598;28;19995;-81
2023/05/28 13:19:40;;;;;;;;;;;29.20;48.10;;;;;;8214913;28;20357;-86
2023/05/28 13:23:40;;;;;;;;;;;30.10;52.10;;;;;;8192448;28;20300;-84
2023/05/28 13:27:43;;;;;;;;;;;29.90;49.30;;;;;;8206774;29;19978;-85
2023/05/28 13:31:47;;;;;;;;;;;29.70;49.20;;;;;;8188792;29;19946;-84
2023/05/28 13:35:51;;;;;;;;;;;29.40;54.00;;;;;;8205466;29;19958;-85
2023/05/28 13:40:13;;;;;;;;;;;29.30;53.70;;;;;;8182092;29;20408;-85
2023/05/28 13:44:17;;;;;;;;;;;31.00;49.70;;;;;;8203371;28;19961;-86
2023/05/28 13:48:20;;;;;;;;;;;30.00;50.00;;;;;;8180800;28;19914;-85
2023/05/28 13:52:24;;;;;;;;;;;29.90;51.10;;;;;;8186167;29;19921;-85
2023/05/28 13:56:30;;;;;;;;;;;30.20;50.30;;;;;;8174226;29;19949;-85
2023/05/28 14:00:34;;;;;;;;;;;30.70;49.50;;;;;;8177308;28;20009;-85
2023/05/28 14:04:37;;;;;;;;;;;30.40;49.20;;;;;;8194409;28;19957;-85
2023/05/28 14:08:41;;;;;;;;;;;29.70;50.60;;;;;;8181171;29;19919;-84
2023/05/28 14:12:43;;;;;;;;;;;30.80;48.20;;;;;;8180430;29;20348;-86
2023/05/28 14:16:43;;;;;;;;;;;31.20;49.70;;;;;;8182560;28;19911;-84
2023/05/28 14:20:44;;;;;;;;;;;29.60;53.30;;;;;;8184481;29;19950;-84
2023/05/28 14:24:54;;;;;;;;;;;29.40;50.80;;;;;;8175629;29;19990;-84
2023/05/28 14:29:01;;;;;;;;;;;29.00;51.70;;;;;;8188255;29;19910;-84
2023/05/28 14:33:01;;;;;;;;;;;29.10;53.10;;;;;;8176814;29;19919;-84
2023/05/28 14:37:14;;;;;;;;;;;28.80;52.80;;;;;;8176518;29;19954;-85
2023/05/28 14:41:15;;;;;;;;;;;30.00;51.70;;;;;;8165250;29;19943;-85
2023/05/28 14:45:16;;;;;;;;;;;29.90;51.00;;;;;;8181887;29;20406;-86
2023/05/28 14:49:20;;;;;;;;;;;30.50;50.20;;;;;;8178813;29;19931;-88
2023/05/28 14:53:36;;;;;;;;;;;30.00;49.70;;;;;;8174589;29;19911;-86
2023/05/28 14:57:40;;;;;;;;;;;29.70;51.20;;;;;;8173844;29;19914;-86
2023/05/28 15:01:40;;;;;;;;;;;31.00;50.20;;;;;;8165487;29;20065;-87
2023/05/28 15:05:41;;;;;;;;;;;30.80;48.50;;;;;;8184491;29;19922;-86
2023/05/28 15:09:42;;;;;;;;;;;31.00;49.10;;;;;;8188200;28;19910;-85
2023/05/28 15:13:45;;;;;;;;;;;31.00;48.00;;;;;;8181676;29;19930;-85
2023/05/28 15:17:46;;;;;;;;;;;29.80;53.00;;;;;;8185952;29;19949;-85
2023/05/28 15:21:46;;;;;;;;;;;30.00;51.40;;;;;;8173560;29;19919;-85
2023/05/28 15:25:47;;;;;;;;;;;28.60;52.50;;;;;;8176972;29;19915;-86
2023/05/28 15:29:48;;;;;;;;;;;28.70;52.10;;;;;;8174362;29;19915;-85
2023/05/28 15:33:49;;;;;;;;;;;28.00;53.20;;;;;;8177175;28;19932;-85
2023/05/28 15:37:50;;;;;;;;;;;27.20;54.30;;;;;;8181978;28;19910;-86
2023/05/28 15:41:58;;;;;;;;;;;26.40;55.60;;;;;;8175077;29;20333;-86
2023/05/28 15:46:08;;;;;;;;;;;25.30;57.80;;;;;;8176027;29;19911;-85
2023/05/28 15:50:09;;;;;;;;;;;24.30;59.70;;;;;;8169566;29;19915;-85
2023/05/28 15:54:12;;;;;;;;;;;23.50;64.90;;;;;;8172400;29;20001;-85
2023/05/28 15:58:13;;;;;;;;;;;23.10;66.00;;;;;;8183539;28;19921;-85
2023/05/28 16:02:15;;;;;;;;;;;23.00;66.10;;;;;;8173710;29;19958;-85
2023/05/28 16:06:16;;;;;;;;;;;22.70;65.90;;;;;;8183775;29;20387;-85
2023/05/28 16:10:17;;;;;;;;;;;22.50;64.20;;;;;;8187046;28;20336;-86
2023/05/28 16:14:21;;;;;;;;;;;22.50;66.00;;;;;;8168120;28;20062;-85
2023/05/28 16:18:22;;;;;;;;;;;22.40;66.00;;;;;;8170519;28;19921;-85
2023/05/28 16:22:28;;;;;;;;;;;22.40;64.20;;;;;;8182887;29;19949;-86
2023/05/28 16:26:29;;;;;;;;;;;22.20;62.80;;;;;;8191227;28;19915;-85
2023/05/28 16:30:30;;;;;;;;;;;22.10;65.00;;;;;;8157477;29;20014;-85
2023/05/28 16:34:33;;;;;;;;;;;22.20;62.40;;;;;;8169068;29;19985;-85
2023/05/28 16:38:34;;;;;;;;;;;22.00;62.80;;;;;;8165083;29;19954;-85
2023/05/28 16:42:37;;;;;;;;;;;21.90;62.30;;;;;;8168699;29;20291;-86
2023/05/28 16:46:41;;;;;;;;;;;21.80;62.30;;;;;;8178451;29;19949;-85
2023/05/28 16:50:46;;;;;;;;;;;21.90;62.80;;;;;;8180859;29;19974;-86
2023/05/28 16:54:52;;;;;;;;;;;21.80;59.80;;;;;;8172478;28;19934;-85
2023/05/28 16:58:56;;;;;;;;;;;21.50;61.00;;;;;;8169955;29;20009;-85
2023/05/28 17:03:02;;;;;;;;;;;21.00;59.40;;;;;;8169526;28;19926;-85
2023/05/28 17:07:03;;;;;;;;;;;21.20;58.60;;;;;;8177540;29;19919;-85
2023/05/28 17:11:06;;;;;;;;;;;20.90;56.00;;;;;;8195255;28;20034;-85
2023/05/28 17:15:09;;;;;;;;;;;20.80;57.50;;;;;;8184867;29;20330;-85
2023/05/28 17:19:10;;;;;;;;;;;20.70;57.90;;;;;;8170691;28;19918;-85
2023/05/28 17:23:16;;;;;;;;;;;20.70;58.50;;;;;;8179740;28;19918;-86
2023/05/28 17:27:17;;;;;;;;;;;20.70;59.30;;;;;;8173141;29;19915;-85
2023/05/28 17:31:18;;;;;;;;;;;20.40;58.60;;;;;;8181652;29;19954;-85
2023/05/28 17:35:18;;;;;;;;;;;20.30;60.40;;;;;;8185739;29;19915;-85
2023/05/28 17:39:19;;;;;;;;;;;20.20;59.60;;;;;;8176548;29;19985;-85
2023/05/28 17:43:22;;;;;;;;;;;20.20;59.80;;;;;;8187954;29;19981;-85
2023/05/28 17:47:23;;;;;;;;;;;20.10;59.60;;;;;;8168544;29;20009;-86
2023/05/28 17:51:27;;;;;;;;;;;20.10;64.40;;;;;;8173128;28;19950;-85
2023/05/28 17:55:27;;;;;;;;;;;20.00;63.10;;;;;;8184787;29;19918;-85
2023/05/28 17:59:28;;;;;;;;;;;19.80;65.20;;;;;;8174075;28;20010;-85
2023/05/28 18:03:29;;;;;;;;;;;19.70;63.40;;;;;;8183035;28;19915;-86
2023/05/28 18:07:32;;;;;;;;;;;19.60;62.50;;;;;;8179393;28;19930;-86
2023/05/28 18:11:35;;;;;;;;;;;19.40;66.20;;;;;;8188506;28;20352;-85
2023/05/28 18:15:39;;;;;;;;;;;19.10;66.70;;;;;;8177995;29;20730;-86
2023/05/28 18:19:45;;;;;;;;;;;18.70;69.50;;;;;;8184837;29;19922;-88
2023/05/28 18:23:48;;;;;;;;;;;18.60;69.40;;;;;;8190445;29;19915;-85
2023/05/28 18:27:49;;;;;;;;;;;18.30;70.80;;;;;;8181975;28;19911;-85
2023/05/28 18:31:49;;;;;;;;;;;17.90;78.40;;;;;;8179400;29;19919;-85
2023/05/28 18:35:50;;;;;;;;;;;17.40;80.00;;;;;;8181442;29;19914;-85
2023/05/28 18:39:57;;;;;;;;;;;17.00;80.50;;;;;;8185203;29;20005;-85
2023/05/28 18:44:04;;;;;;;;;;;16.70;82.80;;;;;;8173050;28;19922;-86
2023/05/28 18:48:05;;;;;;;;;;;16.40;85.90;;;;;;8170490;28;20372;-86
2023/05/28 18:52:13;;;;;;;;;;;16.10;87.70;;;;;;8184382;29;19911;-86
2023/05/28 18:56:13;;;;;;;;;;;15.80;87.60;;;;;;8180369;28;20006;-85
2023/05/28 19:00:16;;;;;;;;;;;15.60;90.30;;;;;;8176759;29;19919;-86
2023/05/28 19:04:17;;;;;;;;;;;15.20;91.60;;;;;;8181420;28;19915;-86
2023/05/28 19:08:18;;;;;;;;;;;15.00;92.70;;;;;;8185636;28;19925;-86
2023/05/28 19:12:20;;;;;;;;;;;14.90;93.40;;;;;;8183953;28;19914;-86
2023/05/28 19:16:25;;;;;;;;;;;14.70;94.10;;;;;;8185420;28;19915;-85
2023/05/28 19:20:25;;;;;;;;;;;14.40;94.70;;;;;;8178692;28;19915;-86
2023/05/28 19:24:26;;;;;;;;;;;14.60;96.30;;;;;;8179812;28;19918;-86
2023/05/28 19:28:27;;;;;;;;;;;14.10;96.60;;;;;;8182564;28;19911;-85
2023/05/28 19:32:27;;;;;;;;;;;14.00;99.10;;;;;;8189715;29;19962;-85
2023/05/28 19:36:29;;;;;;;;;;;13.70;99.90;;;;;;8181877;28;19958;-85
2023/05/28 19:40:30;;;;;;;;;;;13.50;99.90;;;;;;8181771;29;19938;-85
2023/05/28 19:44:30;;;;;;;;;;;13.40;99.90;;;;;;8174308;28;19910;-85
2023/05/28 19:48:32;;;;;;;;;;;13.20;99.90;;;;;;8174300;29;20439;-85
2023/05/28 19:52:33;;;;;;;;;;;13.10;99.90;;;;;;8181653;29;19973;-85
2023/05/28 19:56:33;;;;;;;;;;;13.00;99.90;;;;;;8178825;28;19915;-85
2023/05/28 20:00:35;;;;;;;;;;;12.80;99.90;;;;;;8188030;29;20375;-86
2023/05/28 20:04:41;;;;;;;;;;;12.50;99.90;;;;;;8184332;29;20351;-85
2023/05/28 20:08:42;;;;;;;;;;;12.60;99.90;;;;;;8172984;29;19931;-85
2023/05/28 20:12:42;;;;;;;;;;;12.80;99.90;;;;;;8189105;29;19918;-85
2023/05/28 20:16:46;;;;;;;;;;;12.10;99.90;;;;;;8171974;29;19923;-87
2023/05/28 20:20:47;;;;;;;;;;;11.90;99.90;;;;;;8175468;29;19919;-85
2023/05/28 20:24:48;;;;;;;;;;;11.60;99.90;;;;;;8173526;28;19915;-86
2023/05/28 20:28:49;;;;;;;;;;;11.60;99.90;;;;;;8171725;29;19914;-85
2023/05/28 20:32:50;;;;;;;;;;;11.30;99.90;;;;;;8185625;29;19985;-85
2023/05/28 20:36:50;;;;;;;;;;;11.10;99.90;;;;;;8185733;28;19917;-85
2023/05/28 20:40:53;;;;;;;;;;;11.00;99.90;;;;;;8178934;29;20013;-85
2023/05/28 20:44:54;;;;;;;;;;;10.90;99.90;;;;;;8172345;28;19954;-86
2023/05/28 20:48:55;;;;;;;;;;;11.20;99.90;;;;;;8171446;29;19946;-85
2023/05/28 20:52:55;;;;;;;;;;;11.90;99.90;;;;;;8173878;29;19910;-86
2023/05/28 20:56:57;;;;;;;;;;;11.30;99.90;;;;;;8183964;29;20009;-85
2023/05/28 21:05:35;;;;;;;;;;;10.40;99.90;;;;;;8183084;28;20010;-87
2023/05/28 21:09:36;;;;;;;;;;;10.30;99.90;;;;;;8173319;29;19910;-85
2023/05/28 21:13:36;;;;;;;;;;;10.40;99.90;;;;;;8174098;28;19910;-86
2023/05/28 21:17:37;;;;;;;;;;;10.30;99.90;;;;;;8175372;28;20027;-85
2023/05/28 21:21:37;;;;;;;;;;;10.60;99.90;;;;;;8183467;29;19914;-85
2023/05/28 21:25:38;;;;;;;;;;;10.90;99.90;;;;;;8185239;29;19911;-86
2023/05/28 21:29:41;;;;;;;;;;;10.10;99.90;;;;;;8185809;28;19957;-86
2023/05/28 21:33:41;;;;;;;;;;;10.00;99.90;;;;;;8168349;29;19927;-86
2023/05/28 21:37:46;;;;;;;;;;;11.10;99.90;;;;;;8172930;29;19987;-85
2023/05/28 21:41:46;;;;;;;;;;;9.90;99.90;;;;;;8181477;29;19923;-85
2023/05/28 21:45:49;;;;;;;;;;;10.20;99.90;;;;;;8183063;28;19962;-85
2023/05/28 21:49:51;;;;;;;;;;;9.70;99.90;;;;;;8202061;28;19937;-85
2023/05/28 21:53:51;;;;;;;;;;;9.60;99.90;;;;;;8185016;28;19911;-86
2023/05/28 21:57:52;;;;;;;;;;;9.60;99.90;;;;;;8182603;29;19933;-85
2023/05/28 22:01:52;;;;;;;;;;;9.40;99.90;;;;;;8182002;29;19922;-85
2023/05/28 22:05:59;;;;;;;;;;;9.60;99.90;;;;;;8178704;29;19923;-85
2023/05/28 22:10:00;;;;;;;;;;;9.00;99.90;;;;;;8184183;28;19910;-85
2023/05/28 22:14:00;;;;;;;;;;;9.50;99.90;;;;;;8193063;29;19926;-85
2023/05/28 22:18:02;;;;;;;;;;;9.00;99.90;;;;;;8186432;29;19918;-85
2023/05/28 22:22:03;;;;;;;;;;;10.30;99.90;;;;;;8179978;29;19919;-85
2023/05/28 22:26:04;;;;;;;;;;;9.00;99.90;;;;;;8196246;28;19954;-86
2023/05/28 22:30:41;;;;;;;;;;;8.90;99.90;;;;;;8178445;29;19915;-86
2023/05/28 22:34:42;;;;;;;;;;;8.70;99.90;;;;;;8186735;29;19911;-85
2023/05/28 22:38:42;;;;;;;;;;;8.80;99.90;;;;;;8183043;29;20300;-86
2023/05/28 22:42:43;;;;;;;;;;;9.10;99.90;;;;;;8190333;28;19962;-87
2023/05/28 22:46:44;;;;;;;;;;;8.80;99.90;;;;;;8172954;29;19911;-86
2023/05/28 22:50:45;;;;;;;;;;;8.60;99.90;;;;;;8189865;29;20555;-85
2023/05/28 22:54:47;;;;;;;;;;;8.60;99.90;;;;;;8174958;29;19911;-85
2023/05/28 22:58:56;;;;;;;;;;;8.60;99.90;;;;;;8173153;29;19915;-86
2023/05/28 23:02:58;;;;;;;;;;;8.50;99.90;;;;;;8178379;29;19918;-85
2023/05/28 23:06:58;;;;;;;;;;;9.20;99.90;;;;;;8193491;28;19999;-85
2023/05/28 23:10:59;;;;;;;;;;;8.20;99.90;;;;;;8177816;29;19915;-85
2023/05/28 23:14:59;;;;;;;;;;;8.80;99.90;;;;;;8185554;28;19917;-85
2023/05/28 23:19:10;;;;;;;;;;;;;;;;;;;;;
2023/05/28 23:23:11;;;;;;;;;;;8.50;99.90;;;;;;8178705;29;19911;-86
2023/05/28 23:27:12;;;;;;;;;;;7.60;99.90;;;;;;8173936;28;19910;-85
2023/05/28 23:31:12;;;;;;;;;;;7.80;99.90;;;;;;8174252;29;19911;-85
2023/05/28 23:35:13;;;;;;;;;;;7.70;99.90;;;;;;8171875;29;19922;-85
2023/05/28 23:39:16;;;;;;;;;;;7.60;99.90;;;;;;8183516;28;19915;-86
2023/05/28 23:43:17;;;;;;;;;;;7.50;99.90;;;;;;8175339;29;19918;-85
2023/05/28 23:47:17;;;;;;;;;;;7.90;99.90;;;;;;8169579;29;19910;-86
2023/05/28 23:51:18;;;;;;;;;;;7.50;99.90;;;;;;8184351;28;19911;-86
2023/05/28 23:55:18;;;;;;;;;;;8.00;99.90;;;;;;8192147;29;19935;-86
2023/05/28 23:59:31;;;;;;;;;;;8.40;99.90;;;;;;8182125;29;20029;-86
